sensor_id;sensor_type;location;lat;lon;timestamp;pressure;altitude;pressure_sealevel;temperature;humidity
58373;BME280;44177;43.356;27.672;2023-05-22T00:00:14;97863.72;;;14.79;70.48
58373;BME280;44177;43.356;27.672;2023-05-22T00:02:41;97858.16;;;14.68;70.84
58373;BME280;44177;43.356;27.672;2023-05-22T00:05:08;97864.88;;;14.74;70.93
58373;BME280;44177;43.356;27.672;2023-05-22T00:07:35;97857.38;;;14.67;70.69
58373;BME280;44177;43.356;27.672;2023-05-22T00:10:00;97856.44;;;14.49;71.88
58373;BME280;44177;43.356;27.672;2023-05-22T00:12:26;97865.84;;;14.51;71.94
58373;BME280;44177;43.356;27.672;2023-05-22T00:14:51;97859.53;;;14.44;72.04
58373;BME280;44177;43.356;27.672;2023-05-22T00:17:17;97859.09;;;14.38;72.38
58373;BME280;44177;43.356;27.672;2023-05-22T00:19:43;97848.91;;;14.38;72.33
58373;BME280;44177;43.356;27.672;2023-05-22T00:22:09;97852.41;;;14.32;72.85
58373;BME280;44177;43.356;27.672;2023-05-22T00:24:34;97857.06;;;14.31;72.77
58373;BME280;44177;43.356;27.672;2023-05-22T00:26:59;97851.81;;;14.08;73.74
58373;BME280;44177;43.356;27.672;2023-05-22T00:29:25;97854.13;;;14.06;74.46
58373;BME280;44177;43.356;27.672;2023-05-22T00:31:50;97846.66;;;14.03;74.36
58373;BME280;44177;43.356;27.672;2023-05-22T00:34:16;97823.66;;;13.73;75.07
58373;BME280;44177;43.356;27.672;2023-05-22T00:36:41;97848.16;;;13.97;74.51
58373;BME280;44177;43.356;27.672;2023-05-22T00:39:07;97834.88;;;13.99;74.20
58373;BME280;44177;43.356;27.672;2023-05-22T00:41:33;97846.94;;;13.90;74.48
58373;BME280;44177;43.356;27.672;2023-05-22T00:43:59;97848.13;;;13.93;74.02
58373;BME280;44177;43.356;27.672;2023-05-22T00:46:25;97852.03;;;13.92;74.25
58373;BME280;44177;43.356;27.672;2023-05-22T00:48:51;97864.56;;;13.89;74.60
58373;BME280;44177;43.356;27.672;2023-05-22T00:51:21;97862.97;;;13.88;74.42
58373;BME280;44177;43.356;27.672;2023-05-22T00:53:47;97866.81;;;13.80;74.85
58373;BME280;44177;43.356;27.672;2023-05-22T00:56:13;97856.88;;;13.68;75.24
58373;BME280;44177;43.356;27.672;2023-05-22T00:58:40;97870.22;;;13.70;75.47
58373;BME280;44177;43.356;27.672;2023-05-22T01:01:06;97853.75;;;13.70;75.50
58373;BME280;44177;43.356;27.672;2023-05-22T01:03:41;97876.13;;;13.72;75.21
58373;BME280;44177;43.356;27.672;2023-05-22T01:06:17;97868.25;;;13.67;75.21
58373;BME280;44177;43.356;27.672;2023-05-22T01:08:46;97860.69;;;13.56;75.40
58373;BME280;44177;43.356;27.672;2023-05-22T01:11:18;97861.03;;;13.51;75.54
58373;BME280;44177;43.356;27.672;2023-05-22T01:16:28;97866.03;;;13.46;75.70
58373;BME280;44177;43.356;27.672;2023-05-22T01:19:00;97859.38;;;13.43;76.02
58373;BME280;44177;43.356;27.672;2023-05-22T01:32:16;97846.63;;;13.27;75.65
58373;BME280;44177;43.356;27.672;2023-05-22T01:34:46;97851.22;;;13.20;76.18
58373;BME280;44177;43.356;27.672;2023-05-22T01:37:17;97852.31;;;13.15;75.97
58373;BME280;44177;43.356;27.672;2023-05-22T01:39:44;97863.25;;;13.11;76.58
58373;BME280;44177;43.356;27.672;2023-05-22T01:42:10;97859.72;;;13.11;76.46
58373;BME280;44177;43.356;27.672;2023-05-22T01:44:36;97862.78;;;13.06;76.43
58373;BME280;44177;43.356;27.672;2023-05-22T01:47:02;97864.69;;;13.02;76.45
58373;BME280;44177;43.356;27.672;2023-05-22T01:49:31;97864.16;;;12.92;76.95
58373;BME280;44177;43.356;27.672;2023-05-22T01:52:04;97861.56;;;12.73;77.51
58373;BME280;44177;43.356;27.672;2023-05-22T01:59:47;97869.41;;;12.74;77.71
58373;BME280;44177;43.356;27.672;2023-05-22T02:02:18;97863.81;;;12.67;77.66
58373;BME280;44177;43.356;27.672;2023-05-22T02:04:48;97859.88;;;12.64;77.85
58373;BME280;44177;43.356;27.672;2023-05-22T02:07:18;97864.66;;;12.71;77.92
58373;BME280;44177;43.356;27.672;2023-05-22T02:09:46;97874.88;;;12.74;77.73
58373;BME280;44177;43.356;27.672;2023-05-22T02:12:13;97858.94;;;12.80;77.02
58373;BME280;44177;43.356;27.672;2023-05-22T02:14:40;97854.59;;;12.79;77.23
58373;BME280;44177;43.356;27.672;2023-05-22T02:17:06;97867.13;;;12.80;76.92
58373;BME280;44177;43.356;27.672;2023-05-22T02:19:33;97858.44;;;12.74;76.82
58373;BME280;44177;43.356;27.672;2023-05-22T02:22:00;97871.41;;;12.77;76.44
58373;BME280;44177;43.356;27.672;2023-05-22T02:24:26;97874.09;;;12.74;76.84
58373;BME280;44177;43.356;27.672;2023-05-22T02:26:51;97867.38;;;12.71;77.47
58373;BME280;44177;43.356;27.672;2023-05-22T02:29:17;97868.97;;;12.72;77.71
58373;BME280;44177;43.356;27.672;2023-05-22T02:31:42;97860.31;;;12.67;77.70
58373;BME280;44177;43.356;27.672;2023-05-22T02:34:07;97860.69;;;12.69;77.55
58373;BME280;44177;43.356;27.672;2023-05-22T02:36:33;97847.28;;;12.60;77.22
58373;BME280;44177;43.356;27.672;2023-05-22T02:38:59;97856.72;;;12.62;77.42
58373;BME280;44177;43.356;27.672;2023-05-22T02:41:24;97848.41;;;12.55;76.57
58373;BME280;44177;43.356;27.672;2023-05-22T02:43:50;97855.44;;;12.56;75.88
58373;BME280;44177;43.356;27.672;2023-05-22T02:46:15;97857.34;;;12.52;76.67
58373;BME280;44177;43.356;27.672;2023-05-22T02:48:41;97861.66;;;12.53;77.36
58373;BME280;44177;43.356;27.672;2023-05-22T02:51:06;97868.28;;;12.52;77.43
58373;BME280;44177;43.356;27.672;2023-05-22T02:53:32;97866.97;;;12.42;78.20
58373;BME280;44177;43.356;27.672;2023-05-22T02:55:59;97872.75;;;12.37;79.26
58373;BME280;44177;43.356;27.672;2023-05-22T02:58:25;97868.38;;;12.32;79.86
58373;BME280;44177;43.356;27.672;2023-05-22T03:00:51;97865.22;;;12.30;80.40
58373;BME280;44177;43.356;27.672;2023-05-22T03:03:17;97871.94;;;12.37;80.85
58373;BME280;44177;43.356;27.672;2023-05-22T03:05:43;97873.59;;;12.41;80.40
58373;BME280;44177;43.356;27.672;2023-05-22T03:08:10;97879.09;;;12.45;80.27
58373;BME280;44177;43.356;27.672;2023-05-22T03:10:36;97868.59;;;12.47;80.01
58373;BME280;44177;43.356;27.672;2023-05-22T03:13:02;97884.41;;;12.34;80.54
58373;BME280;44177;43.356;27.672;2023-05-22T03:15:27;97886.06;;;12.39;80.38
58373;BME280;44177;43.356;27.672;2023-05-22T03:17:53;97881.44;;;12.43;80.27
58373;BME280;44177;43.356;27.672;2023-05-22T03:20:18;97882.53;;;12.38;80.12
58373;BME280;44177;43.356;27.672;2023-05-22T03:22:44;97875.09;;;12.39;80.41
58373;BME280;44177;43.356;27.672;2023-05-22T03:25:10;97862.97;;;12.36;80.65
58373;BME280;44177;43.356;27.672;2023-05-22T03:27:37;97870.56;;;12.46;80.95
58373;BME280;44177;43.356;27.672;2023-05-22T03:30:03;97873.69;;;12.48;81.34
58373;BME280;44177;43.356;27.672;2023-05-22T03:32:29;97872.91;;;12.48;81.70
58373;BME280;44177;43.356;27.672;2023-05-22T03:34:54;97877.78;;;12.58;81.44
58373;BME280;44177;43.356;27.672;2023-05-22T03:37:20;97882.53;;;12.65;81.84
58373;BME280;44177;43.356;27.672;2023-05-22T03:39:45;97872.03;;;12.67;81.66
58373;BME280;44177;43.356;27.672;2023-05-22T03:42:11;97878.03;;;12.76;81.72
58373;BME280;44177;43.356;27.672;2023-05-22T03:44:38;97880.06;;;12.83;82.07
58373;BME280;44177;43.356;27.672;2023-05-22T03:47:04;97875.16;;;12.96;81.84
58373;BME280;44177;43.356;27.672;2023-05-22T03:49:29;97869.72;;;13.00;81.41
58373;BME280;44177;43.356;27.672;2023-05-22T03:51:55;97875.13;;;12.92;81.80
58373;BME280;44177;43.356;27.672;2023-05-22T03:54:20;97862.59;;;12.91;82.41
58373;BME280;44177;43.356;27.672;2023-05-22T03:56:46;97868.31;;;13.09;82.09
58373;BME280;44177;43.356;27.672;2023-05-22T03:59:11;97874.72;;;13.21;82.09
58373;BME280;44177;43.356;27.672;2023-05-22T04:01:36;97873.25;;;13.31;81.58
58373;BME280;44177;43.356;27.672;2023-05-22T04:04:04;97871.53;;;13.46;81.21
58373;BME280;44177;43.356;27.672;2023-05-22T04:06:30;97866.09;;;13.49;81.47
58373;BME280;44177;43.356;27.672;2023-05-22T04:08:57;97868.81;;;13.49;81.62
58373;BME280;44177;43.356;27.672;2023-05-22T04:11:23;97875.22;;;13.61;81.56
58373;BME280;44177;43.356;27.672;2023-05-22T04:13:48;97868.63;;;13.65;81.85
58373;BME280;44177;43.356;27.672;2023-05-22T04:16:15;97863.63;;;13.78;81.60
58373;BME280;44177;43.356;27.672;2023-05-22T04:18:41;97871.22;;;13.92;80.78
58373;BME280;44177;43.356;27.672;2023-05-22T04:21:07;97874.84;;;14.00;81.01
58373;BME280;44177;43.356;27.672;2023-05-22T04:23:34;97867.09;;;14.13;81.07
58373;BME280;44177;43.356;27.672;2023-05-22T04:25:59;97875.03;;;14.21;80.38
58373;BME280;44177;43.356;27.672;2023-05-22T04:28:27;97871.56;;;14.28;80.73
58373;BME280;44177;43.356;27.672;2023-05-22T04:30:55;97865.72;;;14.33;80.37
58373;BME280;44177;43.356;27.672;2023-05-22T04:33:22;97869.78;;;14.54;79.93
58373;BME280;44177;43.356;27.672;2023-05-22T04:35:50;97875.34;;;14.61;79.66
58373;BME280;44177;43.356;27.672;2023-05-22T04:38:15;97875.81;;;14.67;79.55
58373;BME280;44177;43.356;27.672;2023-05-22T04:40:42;97860.91;;;14.68;79.56
58373;BME280;44177;43.356;27.672;2023-05-22T04:43:09;97861.41;;;14.84;79.79
58373;BME280;44177;43.356;27.672;2023-05-22T04:45:35;97857.97;;;15.02;78.46
58373;BME280;44177;43.356;27.672;2023-05-22T04:48:01;97868.59;;;15.11;78.92
58373;BME280;44177;43.356;27.672;2023-05-22T04:50:28;97861.22;;;15.26;77.85
58373;BME280;44177;43.356;27.672;2023-05-22T04:52:57;97877.34;;;15.31;78.39
58373;BME280;44177;43.356;27.672;2023-05-22T04:55:24;97873.47;;;15.46;78.19
58373;BME280;44177;43.356;27.672;2023-05-22T04:57:49;97858.59;;;15.62;76.93
58373;BME280;44177;43.356;27.672;2023-05-22T05:00:17;97864.13;;;15.76;76.39
58373;BME280;44177;43.356;27.672;2023-05-22T05:02:42;97871.59;;;15.76;75.92
58373;BME280;44177;43.356;27.672;2023-05-22T05:05:08;97861.81;;;15.86;75.08
58373;BME280;44177;43.356;27.672;2023-05-22T05:07:41;97860.31;;;16.14;75.09
58373;BME280;44177;43.356;27.672;2023-05-22T05:10:08;97863.44;;;16.23;74.67
58373;BME280;44177;43.356;27.672;2023-05-22T05:12:33;97870.50;;;16.46;73.53
58373;BME280;44177;43.356;27.672;2023-05-22T05:14:59;97865.81;;;16.53;73.18
58373;BME280;44177;43.356;27.672;2023-05-22T05:17:24;97860.28;;;16.64;72.35
58373;BME280;44177;43.356;27.672;2023-05-22T05:19:50;97861.84;;;16.80;72.53
58373;BME280;44177;43.356;27.672;2023-05-22T05:22:15;97866.16;;;16.95;72.65
58373;BME280;44177;43.356;27.672;2023-05-22T05:24:41;97857.84;;;17.06;71.85
58373;BME280;44177;43.356;27.672;2023-05-22T05:27:06;97859.34;;;17.32;71.52
58373;BME280;44177;43.356;27.672;2023-05-22T05:29:31;97858.44;;;17.57;70.33
58373;BME280;44177;43.356;27.672;2023-05-22T05:31:57;97831.25;;;17.59;70.76
58373;BME280;44177;43.356;27.672;2023-05-22T05:34:22;97856.69;;;17.92;69.31
58373;BME280;44177;43.356;27.672;2023-05-22T05:36:48;97851.88;;;18.04;68.88
58373;BME280;44177;43.356;27.672;2023-05-22T05:39:13;97845.03;;;18.26;68.22
58373;BME280;44177;43.356;27.672;2023-05-22T05:41:39;97840.13;;;18.45;68.05
58373;BME280;44177;43.356;27.672;2023-05-22T05:44:04;97843.13;;;18.61;67.92
58373;BME280;44177;43.356;27.672;2023-05-22T05:46:30;97842.44;;;18.96;67.08
58373;BME280;44177;43.356;27.672;2023-05-22T05:48:56;97846.06;;;19.23;66.29
58373;BME280;44177;43.356;27.672;2023-05-22T05:51:22;97844.16;;;19.51;65.58
58373;BME280;44177;43.356;27.672;2023-05-22T05:53:47;97843.81;;;19.77;64.06
58373;BME280;44177;43.356;27.672;2023-05-22T05:56:13;97843.41;;;20.06;62.22
58373;BME280;44177;43.356;27.672;2023-05-22T05:58:39;97848.91;;;20.33;61.49
58373;BME280;44177;43.356;27.672;2023-05-22T06:01:04;97841.09;;;20.51;59.52
58373;BME280;44177;43.356;27.672;2023-05-22T06:03:30;97853.41;;;20.71;58.93
58373;BME280;44177;43.356;27.672;2023-05-22T06:05:56;97853.41;;;20.94;58.22
58373;BME280;44177;43.356;27.672;2023-05-22T06:08:21;97848.72;;;21.11;57.40
58373;BME280;44177;43.356;27.672;2023-05-22T06:10:47;97852.22;;;21.36;56.31
58373;BME280;44177;43.356;27.672;2023-05-22T06:13:12;97855.91;;;21.29;55.61
58373;BME280;44177;43.356;27.672;2023-05-22T06:15:38;97848.59;;;21.59;55.23
58373;BME280;44177;43.356;27.672;2023-05-22T06:18:04;97854.91;;;21.80;55.13
58373;BME280;44177;43.356;27.672;2023-05-22T06:20:29;97848.00;;;22.04;54.08
58373;BME280;44177;43.356;27.672;2023-05-22T06:22:55;97856.66;;;22.06;55.19
58373;BME280;44177;43.356;27.672;2023-05-22T06:25:20;97855.81;;;22.26;53.13
58373;BME280;44177;43.356;27.672;2023-05-22T06:27:47;97857.88;;;22.38;52.43
58373;BME280;44177;43.356;27.672;2023-05-22T06:30:12;97856.94;;;22.62;51.49
58373;BME280;44177;43.356;27.672;2023-05-22T06:32:38;97859.22;;;22.96;51.04
58373;BME280;44177;43.356;27.672;2023-05-22T06:35:04;97859.47;;;23.02;49.25
58373;BME280;44177;43.356;27.672;2023-05-22T06:37:29;97854.16;;;23.08;47.20
58373;BME280;44177;43.356;27.672;2023-05-22T06:39:59;97864.78;;;22.96;48.68
58373;BME280;44177;43.356;27.672;2023-05-22T06:42:25;97859.78;;;22.91;49.02
58373;BME280;44177;43.356;27.672;2023-05-22T06:44:51;97867.56;;;22.96;50.15
58373;BME280;44177;43.356;27.672;2023-05-22T06:47:16;97859.00;;;23.20;48.85
58373;BME280;44177;43.356;27.672;2023-05-22T06:49:42;97867.97;;;23.41;48.43
58373;BME280;44177;43.356;27.672;2023-05-22T06:52:07;97866.31;;;23.56;47.94
58373;BME280;44177;43.356;27.672;2023-05-22T06:54:33;97867.28;;;23.37;47.84
58373;BME280;44177;43.356;27.672;2023-05-22T06:56:59;97866.59;;;23.32;46.94
58373;BME280;44177;43.356;27.672;2023-05-22T06:59:24;97862.19;;;23.48;47.43
58373;BME280;44177;43.356;27.672;2023-05-22T07:01:50;97861.78;;;23.62;47.06
58373;BME280;44177;43.356;27.672;2023-05-22T07:04:15;97858.34;;;23.84;44.71
58373;BME280;44177;43.356;27.672;2023-05-22T07:06:41;97843.66;;;24.09;44.20
58373;BME280;44177;43.356;27.672;2023-05-22T07:09:07;97857.91;;;24.50;44.67
58373;BME280;44177;43.356;27.672;2023-05-22T07:11:33;97857.53;;;24.74;44.15
58373;BME280;44177;43.356;27.672;2023-05-22T07:14:03;97864.56;;;24.66;43.60
58373;BME280;44177;43.356;27.672;2023-05-22T07:16:29;97859.97;;;24.72;43.30
58373;BME280;44177;43.356;27.672;2023-05-22T07:18:55;97847.19;;;24.97;42.95
58373;BME280;44177;43.356;27.672;2023-05-22T07:21:21;97853.16;;;25.30;41.22
58373;BME280;44177;43.356;27.672;2023-05-22T07:23:52;97852.25;;;25.56;40.68
58373;BME280;44177;43.356;27.672;2023-05-22T07:26:18;97855.41;;;25.67;40.45
58373;BME280;44177;43.356;27.672;2023-05-22T07:28:43;97851.47;;;26.18;39.71
58373;BME280;44177;43.356;27.672;2023-05-22T07:31:09;97844.53;;;26.51;38.07
58373;BME280;44177;43.356;27.672;2023-05-22T07:33:34;97829.69;;;26.82;37.15
58373;BME280;44177;43.356;27.672;2023-05-22T07:36:00;97847.56;;;26.93;36.91
58373;BME280;44177;43.356;27.672;2023-05-22T07:38:25;97843.06;;;26.87;36.16
58373;BME280;44177;43.356;27.672;2023-05-22T07:40:50;97839.63;;;26.92;36.96
58373;BME280;44177;43.356;27.672;2023-05-22T07:43:16;97844.28;;;26.76;36.85
58373;BME280;44177;43.356;27.672;2023-05-22T07:45:41;97838.97;;;27.43;36.55
58373;BME280;44177;43.356;27.672;2023-05-22T07:48:08;97845.25;;;27.81;35.74
58373;BME280;44177;43.356;27.672;2023-05-22T07:50:33;97827.69;;;28.39;34.92
58373;BME280;44177;43.356;27.672;2023-05-22T07:52:59;97827.03;;;28.68;33.60
58373;BME280;44177;43.356;27.672;2023-05-22T07:55:25;97823.75;;;28.45;33.40
58373;BME280;44177;43.356;27.672;2023-05-22T07:57:50;97830.69;;;28.83;33.84
58373;BME280;44177;43.356;27.672;2023-05-22T08:00:17;97824.91;;;29.02;32.91
58373;BME280;44177;43.356;27.672;2023-05-22T08:02:43;97823.28;;;29.10;32.71
58373;BME280;44177;43.356;27.672;2023-05-22T08:05:08;97823.03;;;29.53;31.72
58373;BME280;44177;43.356;27.672;2023-05-22T08:07:35;97829.63;;;29.50;31.61
58373;BME280;44177;43.356;27.672;2023-05-22T08:10:12;97827.50;;;29.45;30.97
58373;BME280;44177;43.356;27.672;2023-05-22T08:12:38;97816.63;;;29.53;31.32
58373;BME280;44177;43.356;27.672;2023-05-22T08:15:04;97821.03;;;29.89;30.92
58373;BME280;44177;43.356;27.672;2023-05-22T08:17:30;97820.09;;;29.92;30.34
58373;BME280;44177;43.356;27.672;2023-05-22T08:19:55;97811.41;;;29.60;29.67
58373;BME280;44177;43.356;27.672;2023-05-22T08:22:21;97814.97;;;30.27;30.45
58373;BME280;44177;43.356;27.672;2023-05-22T08:24:46;97821.44;;;29.97;30.00
58373;BME280;44177;43.356;27.672;2023-05-22T08:27:11;97823.75;;;30.14;29.42
58373;BME280;44177;43.356;27.672;2023-05-22T08:29:37;97810.44;;;30.35;29.10
58373;BME280;44177;43.356;27.672;2023-05-22T08:32:03;97815.38;;;29.69;30.07
58373;BME280;44177;43.356;27.672;2023-05-22T08:34:28;97818.44;;;29.86;30.94
58373;BME280;44177;43.356;27.672;2023-05-22T08:36:53;97819.28;;;30.07;29.61
58373;BME280;44177;43.356;27.672;2023-05-22T08:39:19;97817.94;;;30.02;28.14
58373;BME280;44177;43.356;27.672;2023-05-22T08:41:45;97816.97;;;29.75;27.93
58373;BME280;44177;43.356;27.672;2023-05-22T08:44:11;97820.75;;;30.79;28.33
58373;BME280;44177;43.356;27.672;2023-05-22T08:46:38;97810.81;;;30.43;29.11
58373;BME280;44177;43.356;27.672;2023-05-22T08:49:07;97816.28;;;31.14;28.41
58373;BME280;44177;43.356;27.672;2023-05-22T08:51:36;97824.28;;;30.53;27.99
58373;BME280;44177;43.356;27.672;2023-05-22T08:54:04;97817.47;;;29.89;29.10
58373;BME280;44177;43.356;27.672;2023-05-22T08:56:32;97818.63;;;30.33;28.82
58373;BME280;44177;43.356;27.672;2023-05-22T08:58:58;97798.91;;;30.95;29.19
58373;BME280;44177;43.356;27.672;2023-05-22T09:01:24;97799.50;;;31.25;28.97
58373;BME280;44177;43.356;27.672;2023-05-22T09:03:50;97798.03;;;30.83;29.49
58373;BME280;44177;43.356;27.672;2023-05-22T09:06:16;97797.19;;;29.85;29.77
58373;BME280;44177;43.356;27.672;2023-05-22T09:08:41;97793.13;;;28.81;30.94
58373;BME280;44177;43.356;27.672;2023-05-22T09:11:08;97803.16;;;28.24;32.05
58373;BME280;44177;43.356;27.672;2023-05-22T09:13:38;97805.75;;;28.13;32.85
58373;BME280;44177;43.356;27.672;2023-05-22T09:16:11;97801.97;;;27.82;31.27
58373;BME280;44177;43.356;27.672;2023-05-22T09:18:38;97796.44;;;27.54;31.84
58373;BME280;44177;43.356;27.672;2023-05-22T09:21:05;97799.63;;;26.54;33.34
58373;BME280;44177;43.356;27.672;2023-05-22T09:23:31;97804.13;;;26.33;34.92
58373;BME280;44177;43.356;27.672;2023-05-22T09:26:00;97817.59;;;26.16;35.95
58373;BME280;44177;43.356;27.672;2023-05-22T09:28:26;97806.19;;;25.92;36.08
58373;BME280;44177;43.356;27.672;2023-05-22T09:30:53;97809.25;;;25.84;36.62
58373;BME280;44177;43.356;27.672;2023-05-22T09:33:21;97808.31;;;25.88;36.89
58373;BME280;44177;43.356;27.672;2023-05-22T09:35:47;97811.94;;;26.07;37.36
58373;BME280;44177;43.356;27.672;2023-05-22T09:38:14;97795.63;;;25.96;37.92
58373;BME280;44177;43.356;27.672;2023-05-22T09:40:40;97795.97;;;26.07;38.28
58373;BME280;44177;43.356;27.672;2023-05-22T09:43:07;97800.59;;;25.92;38.20
58373;BME280;44177;43.356;27.672;2023-05-22T09:45:36;97791.25;;;25.95;37.72
58373;BME280;44177;43.356;27.672;2023-05-22T09:48:05;97795.84;;;26.11;37.34
58373;BME280;44177;43.356;27.672;2023-05-22T09:50:32;97793.06;;;27.32;34.29
58373;BME280;44177;43.356;27.672;2023-05-22T09:53:02;97789.25;;;27.63;34.29
58373;BME280;44177;43.356;27.672;2023-05-22T09:55:30;97785.81;;;27.16;33.27
58373;BME280;44177;43.356;27.672;2023-05-22T09:57:56;97785.81;;;26.97;33.54
58373;BME280;44177;43.356;27.672;2023-05-22T10:00:23;97788.78;;;27.73;32.21
58373;BME280;44177;43.356;27.672;2023-05-22T10:03:05;97782.03;;;27.80;33.08
58373;BME280;44177;43.356;27.672;2023-05-22T10:05:32;97784.13;;;28.52;34.13
58373;BME280;44177;43.356;27.672;2023-05-22T10:08:23;97785.00;;;28.59;32.34
58373;BME280;44177;43.356;27.672;2023-05-22T10:10:51;97781.03;;;28.26;32.65
58373;BME280;44177;43.356;27.672;2023-05-22T10:13:17;97783.38;;;28.28;31.86
58373;BME280;44177;43.356;27.672;2023-05-22T10:15:43;97780.94;;;27.87;32.80
58373;BME280;44177;43.356;27.672;2023-05-22T10:18:09;97780.38;;;27.73;33.17
58373;BME280;44177;43.356;27.672;2023-05-22T10:20:35;97782.00;;;27.56;34.03
58373;BME280;44177;43.356;27.672;2023-05-22T10:23:02;97780.06;;;27.10;33.82
58373;BME280;44177;43.356;27.672;2023-05-22T10:25:28;97778.66;;;26.96;34.12
58373;BME280;44177;43.356;27.672;2023-05-22T10:27:55;97773.47;;;27.32;33.62
58373;BME280;44177;43.356;27.672;2023-05-22T10:32:56;97768.22;;;27.15;33.08
58373;BME280;44177;43.356;27.672;2023-05-22T10:35:44;97777.59;;;27.03;33.49
58373;BME280;44177;43.356;27.672;2023-05-22T10:40:47;97765.75;;;27.69;33.31
58373;BME280;44177;43.356;27.672;2023-05-22T10:43:13;97763.56;;;28.07;33.29
58373;BME280;44177;43.356;27.672;2023-05-22T10:45:38;97747.44;;;29.25;31.64
58373;BME280;44177;43.356;27.672;2023-05-22T10:48:08;97754.72;;;28.87;31.65
58373;BME280;44177;43.356;27.672;2023-05-22T10:50:34;97756.56;;;28.02;32.33
58373;BME280;44177;43.356;27.672;2023-05-22T10:53:23;97765.94;;;27.56;39.67
58373;BME280;44177;43.356;27.672;2023-05-22T10:55:58;97754.88;;;27.10;42.80
58373;BME280;44177;43.356;27.672;2023-05-22T10:58:31;97752.41;;;26.38;42.70
58373;BME280;44177;43.356;27.672;2023-05-22T11:01:26;97750.47;;;26.07;42.38
58373;BME280;44177;43.356;27.672;2023-05-22T11:06:45;97746.81;;;25.78;43.23
58373;BME280;44177;43.356;27.672;2023-05-22T11:12:18;97757.44;;;25.30;41.21
58373;BME280;44177;43.356;27.672;2023-05-22T11:14:53;97757.88;;;25.19;41.76
58373;BME280;44177;43.356;27.672;2023-05-22T11:19:59;97778.25;;;25.06;41.54
58373;BME280;44177;43.356;27.672;2023-05-22T11:22:36;97768.88;;;24.91;41.90
58373;BME280;44177;43.356;27.672;2023-05-22T11:25:05;97749.66;;;24.36;42.26
58373;BME280;44177;43.356;27.672;2023-05-22T11:27:31;97749.63;;;24.13;42.83
58373;BME280;44177;43.356;27.672;2023-05-22T11:29:58;97744.06;;;23.88;43.65
58373;BME280;44177;43.356;27.672;2023-05-22T11:32:24;97757.72;;;24.56;44.37
58373;BME280;44177;43.356;27.672;2023-05-22T11:34:50;97744.56;;;25.54;42.46
58373;BME280;44177;43.356;27.672;2023-05-22T11:37:18;97738.25;;;26.88;40.61
58373;BME280;44177;43.356;27.672;2023-05-22T11:40:12;97754.28;;;26.59;38.66
58373;BME280;44177;43.356;27.672;2023-05-22T11:42:37;97760.69;;;25.91;38.15
58373;BME280;44177;43.356;27.672;2023-05-22T11:45:03;97777.59;;;25.25;43.62
58373;BME280;44177;43.356;27.672;2023-05-22T11:47:30;97806.94;;;24.37;49.79
58373;BME280;44177;43.356;27.672;2023-05-22T11:49:56;97807.22;;;23.78;53.67
58373;BME280;44177;43.356;27.672;2023-05-22T11:52:22;97790.25;;;23.33;56.87
58373;BME280;44177;43.356;27.672;2023-05-22T11:54:50;97786.38;;;23.01;58.47
58373;BME280;44177;43.356;27.672;2023-05-22T11:57:15;97782.91;;;22.68;57.18
58373;BME280;44177;43.356;27.672;2023-05-22T11:59:44;97776.47;;;22.25;59.73
58373;BME280;44177;43.356;27.672;2023-05-22T12:02:11;97778.75;;;21.97;58.89
58373;BME280;44177;43.356;27.672;2023-05-22T12:04:36;97774.16;;;21.54;57.88
58373;BME280;44177;43.356;27.672;2023-05-22T12:07:02;97771.22;;;21.04;59.94
58373;BME280;44177;43.356;27.672;2023-05-22T12:09:29;97778.84;;;21.00;60.50
58373;BME280;44177;43.356;27.672;2023-05-22T12:11:55;97790.16;;;21.09;61.62
58373;BME280;44177;43.356;27.672;2023-05-22T12:14:27;97783.34;;;20.94;60.40
58373;BME280;44177;43.356;27.672;2023-05-22T12:16:54;97780.19;;;20.92;60.05
58373;BME280;44177;43.356;27.672;2023-05-22T12:19:20;97780.13;;;21.16;62.61
58373;BME280;44177;43.356;27.672;2023-05-22T12:21:48;97782.41;;;21.01;61.35
58373;BME280;44177;43.356;27.672;2023-05-22T12:24:14;97815.78;;;20.73;60.51
58373;BME280;44177;43.356;27.672;2023-05-22T12:26:39;97809.00;;;20.30;61.45
58373;BME280;44177;43.356;27.672;2023-05-22T12:29:05;97824.31;;;19.84;65.74
58373;BME280;44177;43.356;27.672;2023-05-22T12:31:34;97828.28;;;19.24;68.12
58373;BME280;44177;43.356;27.672;2023-05-22T12:34:03;97805.38;;;18.89;67.69
58373;BME280;44177;43.356;27.672;2023-05-22T12:36:47;97799.09;;;18.85;70.00
58373;BME280;44177;43.356;27.672;2023-05-22T12:39:16;97793.50;;;18.92;73.18
58373;BME280;44177;43.356;27.672;2023-05-22T12:41:43;97794.53;;;18.68;73.21
58373;BME280;44177;43.356;27.672;2023-05-22T12:44:09;97775.03;;;18.44;75.79
58373;BME280;44177;43.356;27.672;2023-05-22T12:46:34;97779.94;;;18.29;76.43
58373;BME280;44177;43.356;27.672;2023-05-22T12:49:00;97784.13;;;17.92;77.67
58373;BME280;44177;43.356;27.672;2023-05-22T12:51:27;97794.09;;;17.78;77.55
58373;BME280;44177;43.356;27.672;2023-05-22T12:53:57;97794.47;;;17.84;77.56
58373;BME280;44177;43.356;27.672;2023-05-22T12:56:22;97795.19;;;17.95;75.85
58373;BME280;44177;43.356;27.672;2023-05-22T12:58:48;97799.53;;;17.89;75.69
58373;BME280;44177;43.356;27.672;2023-05-22T13:01:14;97797.75;;;17.61;77.68
58373;BME280;44177;43.356;27.672;2023-05-22T13:03:39;97815.50;;;17.63;80.21
58373;BME280;44177;43.356;27.672;2023-05-22T13:06:05;97825.34;;;17.57;83.70
58373;BME280;44177;43.356;27.672;2023-05-22T13:08:30;97795.91;;;17.43;84.53
58373;BME280;44177;43.356;27.672;2023-05-22T13:10:56;97792.28;;;17.53;82.15
58373;BME280;44177;43.356;27.672;2023-05-22T13:13:21;97791.94;;;17.44;83.64
58373;BME280;44177;43.356;27.672;2023-05-22T13:15:47;97805.75;;;17.41;81.95
58373;BME280;44177;43.356;27.672;2023-05-22T13:18:12;97810.88;;;17.39;83.18
58373;BME280;44177;43.356;27.672;2023-05-22T13:20:38;97857.81;;;17.24;83.29